Time;durP1;ratioP1;P1;durP2;ratioP2;P2;SDS_P1;SDS_P2;PMS_P1;PMS_P2;Temp;Humidity;BMP_temperature;BMP_pressure;BME280_temperature;BME280_humidity;BME280_pressure;Samples;Min_cycle;Max_cycle;Signal;HPM_P1;HPM_P2
2023/10/15 00:00:22;;;;;;;5.53;2.10;;;9.30;99.90;;;;;;5038755;28;20253;-52
2023/10/15 00:02:49;;;;;;;5.17;1.50;;;9.30;99.90;;;;;;5031208;28;20219;-52
2023/10/15 00:05:20;;;;;;;9.20;2.73;;;9.20;99.90;;;;;;5031481;28;20232;-52
2023/10/15 00:07:47;;;;;;;6.77;1.57;;;9.20;99.90;;;;;;5039071;28;20303;-52
2023/10/15 00:10:14;;;;;;;11.17;1.60;;;9.20;99.90;;;;;;5016419;28;20195;-53
2023/10/15 00:12:41;;;;;;;6.47;1.43;;;9.10;99.90;;;;;;5020879;28;20218;-53
2023/10/15 00:15:14;;;;;;;5.33;1.77;;;9.20;99.90;;;;;;5012648;28;20311;-53
2023/10/15 00:17:42;;;;;;;13.07;1.83;;;9.20;99.90;;;;;;5031178;28;20199;-53
2023/10/15 00:20:13;;;;;;;11.57;2.50;;;9.10;99.90;;;;;;5011729;28;20618;-53
2023/10/15 00:22:42;;;;;;;8.57;2.20;;;9.10;99.90;;;;;;5032896;28;20337;-52
2023/10/15 00:25:11;;;;;;;9.33;1.47;;;9.10;99.90;;;;;;5032477;28;20256;-55
2023/10/15 00:27:37;;;;;;;5.77;2.30;;;9.00;99.90;;;;;;5035892;28;20302;-56
2023/10/15 00:30:06;;;;;;;7.33;1.87;;;9.00;99.90;;;;;;5031393;28;20522;-56
2023/10/15 00:32:33;;;;;;;8.90;1.80;;;9.00;99.90;;;;;;5032849;28;23299;-54
2023/10/15 00:34:58;;;;;;;7.63;3.23;;;9.10;99.90;;;;;;5029264;28;20277;-53
2023/10/15 00:37:24;;;;;;;9.07;2.20;;;8.90;99.90;;;;;;5009096;28;20690;-52
2023/10/15 00:39:50;;;;;;;6.27;2.30;;;8.90;99.90;;;;;;5036544;28;20195;-53
2023/10/15 00:42:16;;;;;;;7.00;1.77;;;8.80;99.90;;;;;;5031742;28;20231;-52
2023/10/15 00:44:42;;;;;;;6.17;2.20;;;8.70;99.90;;;;;;5035550;28;20195;-53
2023/10/15 00:47:15;;;;;;;8.13;1.60;;;8.80;99.90;;;;;;5030039;28;20212;-53
2023/10/15 00:49:42;;;;;;;5.83;1.87;;;8.90;99.90;;;;;;5039932;28;20242;-52
2023/10/15 00:52:09;;;;;;;8.40;2.27;;;9.10;99.90;;;;;;5022700;28;20230;-53
2023/10/15 00:54:37;;;;;;;6.13;1.87;;;9.00;99.90;;;;;;5038809;28;20203;-53
2023/10/15 00:59:49;;;;;;;5.77;1.47;;;9.00;99.90;;;;;;5038122;28;20233;-53
2023/10/15 01:02:22;;;;;;;11.40;2.00;;;9.10;99.90;;;;;;5036386;28;20228;-52
2023/10/15 01:04:51;;;;;;;8.20;2.33;;;9.00;99.90;;;;;;5040092;28;20202;-53
2023/10/15 01:07:43;;;;;;;7.83;1.70;;;8.90;99.90;;;;;;5029663;28;20287;-53
2023/10/15 01:10:19;;;;;;;6.57;1.70;;;8.80;99.90;;;;;;5041421;28;20521;-53
2023/10/15 01:12:44;;;;;;;5.93;1.90;;;8.70;99.90;;;;;;5036211;28;20237;-54
2023/10/15 01:15:10;;;;;;;7.93;1.90;;;8.70;99.90;;;;;;5039012;28;20310;-53
2023/10/15 01:17:38;;;;;;;9.67;1.53;;;8.70;99.90;;;;;;5035786;28;20646;-53
2023/10/15 01:20:07;;;;;;;8.47;2.83;;;8.60;99.90;;;;;;5038546;28;20277;-54
2023/10/15 01:22:33;;;;;;;6.97;1.90;;;8.60;99.90;;;;;;5030358;28;20981;-54
2023/10/15 01:25:10;;;;;;;9.23;1.73;;;8.60;99.90;;;;;;5040150;28;20202;-54
2023/10/15 01:27:36;;;;;;;8.37;1.77;;;8.60;99.90;;;;;;5041549;28;20236;-54
2023/10/15 01:30:02;;;;;;;5.33;1.83;;;8.70;99.90;;;;;;5042280;28;20194;-54
2023/10/15 01:32:31;;;;;;;9.93;2.23;;;8.70;99.90;;;;;;5037923;28;20210;-54
2023/10/15 01:34:59;;;;;;;5.97;1.73;;;8.80;99.90;;;;;;5040421;28;20574;-53
2023/10/15 01:37:25;;;;;;;8.83;2.13;;;8.70;99.90;;;;;;5035628;28;20191;-53
2023/10/15 01:40:01;;;;;;;5.13;1.83;;;8.80;99.90;;;;;;5030933;28;20680;-53
2023/10/15 01:44:55;;;;;;;5.20;1.77;;;8.60;99.90;;;;;;5028739;28;20658;-52
2023/10/15 01:47:28;;;;;;;5.97;2.07;;;8.50;99.90;;;;;;5032836;28;20202;-53
2023/10/15 01:49:56;;;;;;;7.77;2.60;;;8.50;99.90;;;;;;5030679;28;20253;-55
2023/10/15 01:52:39;;;;;;;3.40;1.83;;;8.40;99.90;;;;;;5034456;28;20211;-53
2023/10/15 01:55:05;;;;;;;5.87;1.47;;;8.30;99.90;;;;;;5039429;28;20741;-53
2023/10/15 01:57:32;;;;;;;6.77;2.20;;;8.40;99.90;;;;;;5035105;28;20206;-53
2023/10/15 02:00:06;;;;;;;8.93;2.20;;;8.40;99.90;;;;;;5042583;28;20207;-53
2023/10/15 02:02:32;;;;;;;3.53;1.73;;;8.40;99.90;;;;;;5034359;28;20293;-53
2023/10/15 02:04:58;;;;;;;7.03;1.93;;;8.50;99.90;;;;;;5034635;28;20199;-53
2023/10/15 02:07:30;;;;;;;16.60;2.40;;;8.50;99.90;;;;;;5028541;28;20210;-53
2023/10/15 02:09:56;;;;;;;5.33;1.63;;;8.60;99.90;;;;;;5024013;28;20543;-53
2023/10/15 02:12:21;;;;;;;5.37;1.93;;;8.40;99.90;;;;;;5032414;28;20671;-53
2023/10/15 02:14:51;;;;;;;3.10;2.10;;;8.40;99.90;;;;;;5032353;28;20248;-53
2023/10/15 02:17:23;;;;;;;8.90;2.40;;;8.50;99.90;;;;;;5032350;28;20682;-53
2023/10/15 02:19:49;;;;;;;5.77;2.17;;;8.60;99.90;;;;;;5035040;28;20728;-53
2023/10/15 02:22:15;;;;;;;7.13;1.87;;;8.60;99.90;;;;;;5036103;28;20206;-53
2023/10/15 02:24:47;;;;;;;7.93;2.80;;;8.60;99.90;;;;;;5032600;28;20691;-53
2023/10/15 02:27:21;;;;;;;6.23;1.93;;;8.50;99.90;;;;;;5032633;28;20199;-53
2023/10/15 02:29:49;;;;;;;7.93;1.93;;;8.60;99.90;;;;;;5031982;28;20201;-53
2023/10/15 02:34:54;;;;;;;4.37;1.70;;;8.40;99.90;;;;;;5032142;28;20206;-53
2023/10/15 02:37:27;;;;;;;14.37;2.27;;;8.50;99.90;;;;;;5033121;28;20309;-53
2023/10/15 02:39:54;;;;;;;4.97;1.73;;;8.50;99.90;;;;;;5014725;28;20206;-53
2023/10/15 02:42:21;;;;;;;6.37;2.20;;;8.50;99.90;;;;;;5033675;28;20187;-53
2023/10/15 02:44:52;;;;;;;7.47;1.83;;;8.30;99.90;;;;;;5034274;28;20202;-53
2023/10/15 02:50:03;;;;;;;6.70;2.37;;;8.50;99.90;;;;;;5022822;28;20759;-52
2023/10/15 02:52:35;;;;;;;6.13;2.37;;;8.50;99.90;;;;;;5030487;28;20298;-52
2023/10/15 02:55:06;;;;;;;10.53;2.50;;;8.60;99.90;;;;;;5037106;28;20203;-53
2023/10/15 02:57:38;;;;;;;5.43;1.87;;;8.30;99.90;;;;;;5035193;28;21043;-53
2023/10/15 03:00:18;;;;;;;3.93;1.63;;;8.20;99.90;;;;;;5033832;28;20225;-53
2023/10/15 03:02:44;;;;;;;8.00;1.87;;;8.20;99.90;;;;;;5028838;28;20194;-54
2023/10/15 03:05:15;;;;;;;7.47;1.67;;;8.10;99.90;;;;;;5038606;28;20190;-53
2023/10/15 03:07:44;;;;;;;8.37;2.50;;;8.10;99.90;;;;;;5035092;28;20812;-53
2023/10/15 03:10:21;;;;;;;8.70;2.07;;;8.20;99.90;;;;;;5027743;28;20201;-53
2023/10/15 03:12:47;;;;;;;11.13;2.00;;;8.20;99.90;;;;;;5027219;28;20216;-55
2023/10/15 03:15:14;;;;;;;11.90;2.07;;;8.20;99.90;;;;;;5032590;28;20207;-53
2023/10/15 03:17:43;;;;;;;5.03;1.90;;;8.10;99.90;;;;;;5034061;28;20196;-53
2023/10/15 03:20:22;;;;;;;6.77;1.83;;;8.10;99.90;;;;;;5038941;28;20198;-53
2023/10/15 03:22:51;;;;;;;5.97;1.43;;;8.10;99.90;;;;;;5027896;28;20277;-53
2023/10/15 03:25:19;;;;;;;15.00;3.13;;;8.10;99.90;;;;;;5042854;28;20194;-53
2023/10/15 03:27:46;;;;;;;6.43;2.00;;;8.10;99.90;;;;;;5030549;28;20252;-53
2023/10/15 03:30:13;;;;;;;9.70;1.93;;;8.00;99.90;;;;;;5032231;28;20664;-53
2023/10/15 03:32:45;;;;;;;6.73;2.40;;;7.90;99.90;;;;;;5036975;28;20214;-54
2023/10/15 03:35:18;;;;;;;8.10;2.17;;;7.80;99.90;;;;;;5017360;28;20199;-53
2023/10/15 03:37:47;;;;;;;6.60;1.60;;;7.80;99.90;;;;;;5024659;28;20213;-53
2023/10/15 03:40:32;;;;;;;4.67;2.27;;;7.80;99.90;;;;;;5031441;28;20285;-53
2023/10/15 03:43:06;;;;;;;16.20;2.27;;;7.70;99.90;;;;;;5030331;28;20214;-53
2023/10/15 03:45:50;;;;;;;7.17;1.90;;;7.70;99.90;;;;;;5030527;28;20312;-55
2023/10/15 03:48:28;;;;;;;9.03;2.67;;;7.70;99.90;;;;;;5029413;28;20296;-54
2023/10/15 03:50:53;;;;;;;9.57;2.30;;;7.80;99.90;;;;;;5033656;28;20197;-53
2023/10/15 03:53:27;;;;;;;4.63;1.50;;;7.80;99.90;;;;;;5035866;28;20593;-53
2023/10/15 03:55:56;;;;;;;6.53;1.60;;;7.90;99.90;;;;;;5028210;28;20218;-54
2023/10/15 03:58:22;;;;;;;10.77;2.07;;;7.80;99.90;;;;;;5037713;28;20199;-53
2023/10/15 04:00:49;;;;;;;5.57;1.47;;;7.80;99.90;;;;;;5036594;28;20210;-54
2023/10/15 04:03:27;;;;;;;10.87;2.10;;;7.70;99.90;;;;;;5038901;28;20228;-53
2023/10/15 04:05:58;;;;;;;3.80;1.70;;;7.60;99.90;;;;;;5034008;28;20197;-53
2023/10/15 04:08:25;;;;;;;6.53;1.60;;;7.80;99.90;;;;;;5038315;28;20209;-53
2023/10/15 04:10:55;;;;;;;8.10;2.07;;;7.90;99.90;;;;;;5041197;28;20744;-53
2023/10/15 04:15:56;;;;;;;4.30;1.80;;;7.60;99.90;;;;;;4852168;23;20234;-53
2023/10/15 04:18:23;;;;;;;4.90;2.10;;;7.70;99.90;;;;;;5003532;28;20281;-53
2023/10/15 04:20:49;;;;;;;11.90;2.17;;;7.60;99.90;;;;;;5012927;28;20200;-57
2023/10/15 04:23:30;;;;;;;6.20;2.23;;;7.60;99.90;;;;;;5015983;28;20757;-53
2023/10/15 04:26:00;;;;;;;7.40;2.33;;;7.60;99.90;;;;;;4993946;28;20202;-54
2023/10/15 04:28:27;;;;;;;8.23;1.97;;;7.70;99.90;;;;;;5013776;28;20199;-54
2023/10/15 04:30:53;;;;;;;6.43;2.20;;;7.60;99.90;;;;;;5014417;28;20292;-54
2023/10/15 04:33:20;;;;;;;4.37;1.40;;;7.60;99.90;;;;;;5014096;28;20226;-53
2023/10/15 04:35:49;;;;;;;7.50;1.67;;;7.60;99.90;;;;;;5015722;28;20231;-52
2023/10/15 04:38:30;;;;;;;6.10;2.03;;;7.70;99.90;;;;;;5012850;28;20204;-53
2023/10/15 04:43:27;;;;;;;4.80;1.77;;;7.60;99.90;;;;;;5013445;28;20739;-53
2023/10/15 04:45:54;;;;;;;8.83;1.93;;;7.50;99.90;;;;;;5005240;28;20784;-54
2023/10/15 04:48:41;;;;;;;6.80;2.40;;;7.40;99.90;;;;;;5013989;28;20291;-55
2023/10/15 04:51:12;;;;;;;14.60;1.97;;;7.40;99.90;;;;;;5007815;28;20690;-56
2023/10/15 04:53:39;;;;;;;8.87;2.20;;;7.50;99.90;;;;;;5011178;28;20273;-54
2023/10/15 04:56:04;;;;;;;9.43;1.90;;;7.50;99.90;;;;;;5014804;28;20290;-53
2023/10/15 04:58:30;;;;;;;9.50;2.43;;;7.60;99.90;;;;;;5015174;28;20290;-53
2023/10/15 05:00:58;;;;;;;4.67;1.50;;;7.70;99.90;;;;;;5016190;28;20573;-53
2023/10/15 05:03:24;;;;;;;6.60;2.60;;;7.70;99.90;;;;;;5008270;28;20261;-54
2023/10/15 05:05:51;;;;;;;8.83;1.87;;;7.80;99.90;;;;;;5018818;28;20215;-52
2023/10/15 05:08:20;;;;;;;7.07;2.13;;;7.80;99.90;;;;;;5010082;28;20562;-53
2023/10/15 05:10:50;;;;;;;7.73;2.00;;;7.80;99.90;;;;;;5013526;28;20711;-53
2023/10/15 05:13:16;;;;;;;4.07;1.33;;;7.90;99.90;;;;;;5019115;28;20226;-52
2023/10/15 05:15:44;;;;;;;8.07;1.47;;;7.70;99.90;;;;;;5011263;28;20226;-53
2023/10/15 05:18:10;;;;;;;11.63;2.63;;;7.70;99.90;;;;;;5015256;28;20639;-53
2023/10/15 05:20:39;;;;;;;4.17;2.23;;;7.70;99.90;;;;;;5013806;28;20250;-54
2023/10/15 05:23:04;;;;;;;3.03;1.87;;;7.60;99.90;;;;;;5012347;28;20214;-52
2023/10/15 05:25:30;;;;;;;8.80;3.20;;;7.50;99.90;;;;;;5016091;28;20203;-53
2023/10/15 05:27:57;;;;;;;4.80;1.90;;;7.50;99.90;;;;;;5017337;28;20351;-53
2023/10/15 05:30:22;;;;;;;7.50;2.33;;;7.60;99.90;;;;;;5014276;28;20277;-52
2023/10/15 05:32:48;;;;;;;6.17;2.03;;;7.60;99.90;;;;;;5012693;28;20711;-52
2023/10/15 05:35:17;;;;;;;7.43;2.40;;;7.60;99.90;;;;;;5012866;28;20195;-53
2023/10/15 05:37:44;;;;;;;6.87;2.33;;;7.60;99.90;;;;;;5015921;28;20202;-53
2023/10/15 05:40:12;;;;;;;5.23;2.27;;;7.60;99.90;;;;;;5017549;28;20628;-53
2023/10/15 05:42:37;;;;;;;4.07;1.77;;;7.60;99.90;;;;;;5012450;28;20187;-52
2023/10/15 05:45:06;;;;;;;4.93;2.13;;;7.70;99.90;;;;;;5011931;28;20203;-53
2023/10/15 05:47:33;;;;;;;12.27;1.97;;;7.70;99.90;;;;;;5016916;28;20241;-53
2023/10/15 05:49:58;;;;;;;7.00;2.03;;;7.60;99.90;;;;;;5020322;28;20537;-53
2023/10/15 05:52:24;;;;;;;8.03;1.77;;;7.50;99.90;;;;;;5020832;28;20775;-53
2023/10/15 05:54:53;;;;;;;8.17;2.00;;;7.70;99.90;;;;;;5012759;28;20207;-53
2023/10/15 05:57:21;;;;;;;11.13;2.33;;;7.80;99.90;;;;;;5011507;28;20198;-53
2023/10/15 05:59:47;;;;;;;11.20;3.07;;;7.80;99.90;;;;;;5012324;28;20199;-53
2023/10/15 06:02:13;;;;;;;7.93;2.03;;;7.60;99.90;;;;;;5017073;28;20199;-53
2023/10/15 06:04:38;;;;;;;6.17;1.50;;;7.60;99.90;;;;;;5010624;28;20207;-53
2023/10/15 06:07:07;;;;;;;5.20;1.80;;;7.60;99.90;;;;;;5015562;28;20207;-54
2023/10/15 06:09:34;;;;;;;5.50;2.57;;;7.60;99.90;;;;;;5011917;28;20192;-53
2023/10/15 06:11:59;;;;;;;11.43;2.57;;;7.80;99.90;;;;;;5008187;28;20208;-52
2023/10/15 06:14:28;;;;;;;5.10;2.17;;;7.80;99.90;;;;;;4977120;28;983077;-53
2023/10/15 06:16:56;;;;;;;7.70;2.10;;;7.80;99.90;;;;;;5025838;28;20559;-53
2023/10/15 06:19:21;;;;;;;11.20;2.23;;;7.80;99.90;;;;;;5026300;28;20187;-53
2023/10/15 06:21:47;;;;;;;7.17;1.90;;;8.00;99.90;;;;;;5023510;28;20207;-53
2023/10/15 06:24:13;;;;;;;5.73;1.87;;;7.80;99.90;;;;;;5016146;28;20211;-53
2023/10/15 06:26:38;;;;;;;7.07;2.13;;;7.70;99.90;;;;;;5019402;28;20269;-53
2023/10/15 06:29:04;;;;;;;7.47;2.77;;;7.70;99.90;;;;;;5023274;28;20278;-53
2023/10/15 06:31:30;;;;;;;5.30;1.63;;;7.70;99.90;;;;;;5019657;28;20227;-53
2023/10/15 06:33:55;;;;;;;7.40;2.10;;;7.70;99.90;;;;;;5018396;28;20202;-53
2023/10/15 06:36:21;;;;;;;8.47;2.90;;;7.60;99.90;;;;;;5023623;28;20211;-53
2023/10/15 06:38:49;;;;;;;4.43;1.80;;;7.70;99.90;;;;;;5024218;28;20250;-53
2023/10/15 06:41:14;;;;;;;2.77;1.67;;;7.70;99.90;;;;;;5021946;28;20748;-53
2023/10/15 06:43:40;;;;;;;3.30;1.53;;;7.60;99.90;;;;;;5025667;28;20211;-54
2023/10/15 06:46:07;;;;;;;7.90;1.70;;;7.70;99.90;;;;;;5017785;28;20717;-54
2023/10/15 06:48:35;;;;;;;11.27;2.70;;;7.70;99.90;;;;;;5015811;28;20283;-54
2023/10/15 06:51:04;;;;;;;5.63;1.40;;;7.60;99.90;;;;;;5017985;28;20290;-54
2023/10/15 06:53:30;;;;;;;5.67;1.97;;;7.50;99.90;;;;;;5023165;28;21094;-54
2023/10/15 06:55:56;;;;;;;10.37;2.33;;;7.80;99.90;;;;;;5021747;28;20183;-53
2023/10/15 06:58:21;;;;;;;6.60;1.93;;;8.00;99.90;;;;;;5027480;28;20191;-54
2023/10/15 07:00:47;;;;;;;3.83;1.80;;;8.00;99.90;;;;;;5020048;28;20235;-54
2023/10/15 07:03:15;;;;;;;7.10;2.53;;;7.80;99.90;;;;;;5029587;28;20331;-54
2023/10/15 07:05:41;;;;;;;7.27;1.80;;;8.10;99.90;;;;;;5010900;28;20283;-59
2023/10/15 07:08:06;;;;;;;7.17;1.70;;;8.10;99.90;;;;;;5015900;28;20203;-55
2023/10/15 07:10:33;;;;;;;10.27;2.20;;;8.20;99.90;;;;;;5017315;28;20270;-54
2023/10/15 07:13:01;;;;;;;7.03;2.30;;;8.00;99.90;;;;;;5015650;28;20211;-54
2023/10/15 07:15:26;;;;;;;8.90;3.07;;;8.00;99.90;;;;;;5034707;28;20959;-53
2023/10/15 07:17:53;;;;;;;5.13;1.50;;;7.90;99.90;;;;;;5039197;28;20685;-54
2023/10/15 07:20:20;;;;;;;4.20;1.73;;;8.10;99.90;;;;;;5038595;28;20677;-54
2023/10/15 07:22:46;;;;;;;7.03;2.53;;;8.00;99.90;;;;;;5036972;28;20179;-53
2023/10/15 07:25:13;;;;;;;8.00;2.57;;;8.00;99.90;;;;;;5034746;28;20203;-53
2023/10/15 07:27:41;;;;;;;4.40;1.90;;;8.00;99.90;;;;;;5036383;28;20248;-53
2023/10/15 07:30:12;;;;;;;5.50;1.27;;;8.10;99.90;;;;;;5040800;28;20289;-53
2023/10/15 07:32:39;;;;;;;4.17;1.47;;;8.10;99.90;;;;;;5037778;28;20356;-52
2023/10/15 07:35:06;;;;;;;5.97;2.17;;;8.00;99.90;;;;;;5038091;28;20199;-53
2023/10/15 07:37:32;;;;;;;5.37;1.60;;;8.00;99.90;;;;;;5019915;28;20782;-54
2023/10/15 07:39:58;;;;;;;8.67;1.87;;;8.10;99.90;;;;;;5033201;28;20216;-53
2023/10/15 07:42:25;;;;;;;7.50;1.93;;;8.20;99.90;;;;;;5021519;28;20204;-53
2023/10/15 07:44:51;;;;;;;4.60;1.20;;;8.20;99.90;;;;;;5038221;28;20256;-55
2023/10/15 07:47:16;;;;;;;5.40;1.90;;;8.30;99.90;;;;;;5037983;28;20187;-53
2023/10/15 07:49:42;;;;;;;6.43;1.80;;;8.30;99.90;;;;;;5043643;28;20198;-54
2023/10/15 07:52:07;;;;;;;4.27;1.50;;;8.30;99.90;;;;;;5039124;28;20237;-54
2023/10/15 07:54:33;;;;;;;6.17;2.40;;;8.40;99.90;;;;;;5042029;28;20195;-58
2023/10/15 07:56:58;;;;;;;4.37;1.93;;;8.40;99.90;;;;;;5042902;28;20222;-53
2023/10/15 07:59:24;;;;;;;7.60;1.87;;;8.50;99.90;;;;;;5045117;28;20786;-53
2023/10/15 08:01:50;;;;;;;4.57;2.17;;;8.50;99.90;;;;;;5034281;28;20676;-54
2023/10/15 08:04:16;;;;;;;4.83;1.30;;;8.50;99.90;;;;;;5040610;28;20190;-53
2023/10/15 08:06:42;;;;;;;5.47;2.30;;;8.50;99.90;;;;;;5038813;28;20506;-53
2023/10/15 08:09:10;;;;;;;8.73;1.97;;;8.40;99.90;;;;;;5040544;28;20700;-55
2023/10/15 08:11:35;;;;;;;4.47;1.63;;;8.60;99.90;;;;;;5037391;28;20661;-56
2023/10/15 08:14:01;;;;;;;7.50;2.13;;;8.50;99.90;;;;;;5046996;28;20198;-58
2023/10/15 08:16:26;;;;;;;3.53;1.10;;;8.60;99.90;;;;;;5040484;28;20217;-58
2023/10/15 08:18:52;;;;;;;6.63;1.53;;;8.60;99.90;;;;;;5044237;28;20282;-58
2023/10/15 08:21:17;;;;;;;5.97;1.60;;;8.60;99.90;;;;;;5043508;28;20229;-57
2023/10/15 08:23:43;;;;;;;5.47;1.97;;;8.60;99.90;;;;;;5023662;28;20238;-59
2023/10/15 08:26:08;;;;;;;5.60;1.30;;;8.80;99.90;;;;;;5045645;28;20206;-57
2023/10/15 08:28:34;;;;;;;5.07;1.53;;;8.80;99.90;;;;;;5045181;28;20203;-56
2023/10/15 08:31:00;;;;;;;4.47;1.20;;;9.00;99.90;;;;;;5043885;28;20427;-57
2023/10/15 08:33:25;;;;;;;4.87;1.97;;;9.10;99.90;;;;;;5039301;28;20780;-55
2023/10/15 08:35:51;;;;;;;7.57;1.83;;;9.20;99.90;;;;;;5052405;28;20206;-55
2023/10/15 08:38:16;;;;;;;5.10;1.30;;;9.20;99.90;;;;;;5052308;28;20203;-62
2023/10/15 08:40:48;;;;;;;3.57;1.23;;;9.30;99.90;;;;;;5043288;28;20863;-64
2023/10/15 08:43:24;;;;;;;2.13;1.33;;;9.30;99.90;;;;;;5034650;28;20244;-56
2023/10/15 08:45:51;;;;;;;4.30;1.40;;;9.30;99.90;;;;;;5036160;28;20332;-58
2023/10/15 08:48:18;;;;;;;1.93;1.10;;;9.40;99.90;;;;;;5041114;28;20210;-61
2023/10/15 08:50:45;;;;;;;6.43;1.07;;;9.50;99.90;;;;;;5040558;28;20955;-60
2023/10/15 08:53:13;;;;;;;1.03;0.93;;;9.40;99.90;;;;;;5023561;28;20286;-53
2023/10/15 08:55:39;;;;;;;3.03;1.43;;;9.30;99.90;;;;;;5028804;28;20196;-53
2023/10/15 08:58:09;;;;;;;2.17;1.30;;;9.30;99.90;;;;;;5035545;28;20237;-53
2023/10/15 09:00:36;;;;;;;1.27;0.90;;;9.30;99.90;;;;;;5035947;28;20568;-54
2023/10/15 09:03:02;;;;;;;3.50;1.33;;;9.20;99.90;;;;;;5033145;28;21334;-54
2023/10/15 09:05:33;;;;;;;5.10;1.37;;;9.30;99.90;;;;;;5030220;28;20196;-56
2023/10/15 09:08:06;;;;;;;4.17;1.47;;;9.30;99.90;;;;;;5017646;28;20218;-57
2023/10/15 09:10:32;;;;;;;3.13;1.10;;;9.40;99.90;;;;;;5018083;28;20209;-54
2023/10/15 09:12:59;;;;;;;4.00;1.50;;;9.50;99.90;;;;;;5033451;28;20219;-60
2023/10/15 09:15:29;;;;;;;2.33;1.13;;;9.50;99.90;;;;;;5034238;28;20255;-57
2023/10/15 09:17:58;;;;;;;3.57;1.20;;;9.70;99.90;;;;;;5034169;28;20268;-55
2023/10/15 09:20:27;;;;;;;2.13;1.17;;;9.80;99.90;;;;;;5033451;28;20196;-55
2023/10/15 09:22:57;;;;;;;6.10;1.20;;;9.90;99.90;;;;;;5031456;28;20385;-55
2023/10/15 09:25:24;;;;;;;4.30;1.13;;;9.90;99.90;;;;;;5035271;28;20242;-62
2023/10/15 09:27:53;;;;;;;4.73;1.47;;;10.10;99.90;;;;;;5033459;28;20311;-54
2023/10/15 09:30:21;;;;;;;2.07;0.90;;;10.10;99.90;;;;;;5033286;28;20204;-57
2023/10/15 09:32:48;;;;;;;2.20;1.10;;;9.70;99.90;;;;;;5029035;28;20361;-64
2023/10/15 09:35:17;;;;;;;4.47;1.10;;;9.70;99.90;;;;;;5014028;28;20287;-55
2023/10/15 09:37:46;;;;;;;1.47;0.87;;;9.70;99.90;;;;;;5034247;28;21278;-56
2023/10/15 09:40:19;;;;;;;3.73;0.97;;;9.60;99.90;;;;;;5033757;28;20854;-55
2023/10/15 09:42:49;;;;;;;3.33;1.30;;;9.70;99.90;;;;;;5031305;28;20200;-55
2023/10/15 09:45:23;;;;;;;2.97;0.83;;;9.90;99.90;;;;;;5032196;28;20274;-54
2023/10/15 09:47:57;;;;;;;3.00;0.87;;;10.00;99.90;;;;;;5033055;28;20207;-56
2023/10/15 09:50:27;;;;;;;3.37;1.43;;;10.00;99.90;;;;;;5031251;28;20199;-56
2023/10/15 09:52:57;;;;;;;1.43;0.90;;;9.80;99.90;;;;;;5032061;28;20222;-56
2023/10/15 09:55:27;;;;;;;3.40;1.30;;;10.00;99.90;;;;;;5033859;28;20204;-55
2023/10/15 09:57:55;;;;;;;3.70;1.27;;;9.90;99.90;;;;;;5033918;28;20601;-57
2023/10/15 10:00:46;;;;;;;5.50;1.13;;;9.90;99.90;;;;;;5017338;28;20288;-57
2023/10/15 10:03:57;;;;;;;2.87;0.70;;;10.10;99.90;;;;;;5016936;28;20327;-57
2023/10/15 10:06:48;;;;;;;2.63;0.80;;;10.30;99.90;;;;;;5017382;28;20214;-59
2023/10/15 10:09:51;;;;;;;1.73;0.73;;;10.20;99.90;;;;;;5032088;28;20265;-56
2023/10/15 10:12:51;;;;;;;2.50;0.90;;;10.20;99.90;;;;;;5032260;28;20589;-61
2023/10/15 10:15:40;;;;;;;1.87;0.70;;;10.20;99.90;;;;;;4988227;28;20662;-56
2023/10/15 10:18:06;;;;;;;1.73;0.90;;;10.50;99.90;;;;;;5032478;28;20215;-55
2023/10/15 10:20:33;;;;;;;3.93;1.20;;;10.50;99.90;;;;;;5034583;28;20339;-56
2023/10/15 10:23:06;;;;;;;4.00;0.70;;;10.50;99.90;;;;;;5011857;28;20199;-56
2023/10/15 10:25:39;;;;;;;4.23;1.33;;;10.50;99.90;;;;;;5032047;28;20307;-56
2023/10/15 10:28:10;;;;;;;2.60;1.00;;;10.40;99.90;;;;;;5031775;28;20196;-56
2023/10/15 10:30:37;;;;;;;3.80;1.17;;;10.40;99.90;;;;;;5032390;28;20219;-56
2023/10/15 10:33:03;;;;;;;4.47;1.10;;;10.40;99.90;;;;;;5034397;28;20244;-55
2023/10/15 10:35:43;;;;;;;4.23;1.03;;;10.60;99.90;;;;;;5035003;28;20199;-57
2023/10/15 10:38:16;;;;;;;2.23;0.87;;;10.90;99.90;;;;;;5033744;28;20204;-56
2023/10/15 10:40:51;;;;;;;3.10;1.23;;;10.90;99.90;;;;;;5034026;28;20204;-56
2023/10/15 10:43:19;;;;;;;1.63;0.83;;;10.80;99.90;;;;;;5032177;28;20980;-55
2023/10/15 10:46:00;;;;;;;4.17;0.70;;;10.80;99.90;;;;;;5030723;28;20223;-56
2023/10/15 10:48:30;;;;;;;4.17;1.07;;;10.60;99.90;;;;;;5037282;28;20278;-55
2023/10/15 10:51:08;;;;;;;1.40;0.77;;;10.90;99.90;;;;;;5040564;28;20189;-55
2023/10/15 10:53:59;;;;;;;1.93;0.97;;;10.70;99.90;;;;;;5037393;28;20210;-56
2023/10/15 10:56:40;;;;;;;2.43;0.90;;;10.70;99.90;;;;;;5029747;28;20223;-55
2023/10/15 10:59:10;;;;;;;1.17;0.87;;;10.60;99.90;;;;;;5030781;28;20192;-55
2023/10/15 11:01:41;;;;;;;1.27;1.17;;;10.60;99.90;;;;;;5030916;28;20204;-55
2023/10/15 11:04:11;;;;;;;1.30;0.60;;;10.70;99.90;;;;;;5029316;28;20627;-56
2023/10/15 11:06:38;;;;;;;0.97;0.70;;;10.70;99.90;;;;;;5013315;28;20197;-56
2023/10/15 11:09:16;;;;;;;1.53;0.57;;;10.90;99.90;;;;;;5036668;28;20725;-56
2023/10/15 11:11:46;;;;;;;1.70;0.60;;;11.30;99.90;;;;;;5031576;28;20277;-57
2023/10/15 11:14:12;;;;;;;2.37;0.70;;;11.80;99.90;;;;;;5036208;28;20232;-56
2023/10/15 11:16:40;;;;;;;1.67;0.60;;;11.80;99.90;;;;;;5034195;28;20209;-58
2023/10/15 11:19:30;;;;;;;1.17;0.87;;;11.60;99.90;;;;;;5039198;28;20727;-60
2023/10/15 11:21:56;;;;;;;2.33;0.97;;;11.40;99.90;;;;;;5038480;28;20228;-56
2023/10/15 11:24:23;;;;;;;3.03;1.03;;;11.00;99.90;;;;;;5029570;28;20198;-56
2023/10/15 11:26:50;;;;;;;3.43;0.97;;;10.90;99.90;;;;;;5013480;28;20204;-57
2023/10/15 11:29:18;;;;;;;1.47;0.77;;;10.80;99.90;;;;;;5030810;28;20200;-57
2023/10/15 11:31:46;;;;;;;3.10;0.93;;;10.80;99.90;;;;;;5036594;28;20251;-57
2023/10/15 11:34:17;;;;;;;1.47;0.80;;;10.80;99.90;;;;;;5037206;28;20198;-57
2023/10/15 11:36:43;;;;;;;1.13;1.03;;;11.00;99.90;;;;;;5033068;28;20370;-58
2023/10/15 11:39:18;;;;;;;1.50;0.80;;;11.30;99.90;;;;;;5035414;28;20195;-57
2023/10/15 11:41:50;;;;;;;1.73;0.80;;;11.50;99.90;;;;;;5032319;28;20197;-57
2023/10/15 11:44:17;;;;;;;2.03;1.10;;;11.70;99.90;;;;;;5026816;28;20285;-57
2023/10/15 11:46:46;;;;;;;2.00;0.80;;;11.80;99.90;;;;;;5030412;28;20203;-58
2023/10/15 11:49:11;;;;;;;2.77;0.77;;;11.60;99.90;;;;;;5012863;28;20263;-54
2023/10/15 11:51:39;;;;;;;3.70;0.97;;;11.40;99.90;;;;;;5033118;28;20215;-55
2023/10/15 11:54:09;;;;;;;2.00;0.67;;;11.10;99.90;;;;;;5014230;28;20875;-56
2023/10/15 11:56:38;;;;;;;1.23;0.80;;;11.00;99.90;;;;;;5030508;28;20196;-59
2023/10/15 11:59:03;;;;;;;3.53;0.97;;;10.80;99.90;;;;;;5029914;28;20207;-55
2023/10/15 12:01:29;;;;;;;4.70;2.07;;;10.80;99.90;;;;;;5027641;28;20198;-57
2023/10/15 12:04:00;;;;;;;2.67;0.90;;;10.90;99.90;;;;;;5031970;28;20208;-56
2023/10/15 12:06:26;;;;;;;3.27;0.80;;;10.70;99.90;;;;;;5027322;28;20207;-55
2023/10/15 12:08:52;;;;;;;2.23;1.00;;;10.70;99.90;;;;;;5032022;28;20211;-55
2023/10/15 12:11:18;;;;;;;2.73;0.87;;;10.90;99.90;;;;;;5031821;28;20290;-57
2023/10/15 12:13:47;;;;;;;2.37;1.03;;;11.30;99.90;;;;;;5012414;28;20231;-57
2023/10/15 12:16:13;;;;;;;1.80;0.97;;;11.70;99.90;;;;;;5033087;28;20209;-59
2023/10/15 12:18:39;;;;;;;1.17;0.80;;;12.10;99.90;;;;;;5036664;28;20240;-65
2023/10/15 12:21:06;;;;;;;0.93;0.83;;;12.20;99.90;;;;;;5030712;28;20292;-58
2023/10/15 12:23:31;;;;;;;1.53;0.90;;;11.80;99.40;;;;;;5027574;28;20201;-57
2023/10/15 12:25:57;;;;;;;1.43;0.90;;;11.80;99.90;;;;;;5029908;28;20229;-57
2023/10/15 12:28:22;;;;;;;4.43;0.90;;;11.80;99.90;;;;;;5029876;28;20895;-57
2023/10/15 12:30:48;;;;;;;2.33;1.00;;;12.00;99.90;;;;;;5035003;28;20208;-58
2023/10/15 12:33:15;;;;;;;2.27;1.03;;;12.40;99.80;;;;;;5040166;28;20218;-57
2023/10/15 12:35:41;;;;;;;3.03;1.37;;;12.50;98.30;;;;;;5034989;28;20202;-57
2023/10/15 12:38:12;;;;;;;2.63;1.00;;;12.50;99.90;;;;;;5038923;28;20630;-57
2023/10/15 12:40:38;;;;;;;0.70;0.60;;;12.50;99.90;;;;;;5039100;28;20668;-57
2023/10/15 12:43:15;;;;;;;2.10;1.07;;;12.70;99.10;;;;;;5036292;28;20206;-57
2023/10/15 12:45:43;;;;;;;2.33;1.23;;;12.90;98.80;;;;;;5032726;28;20363;-59
2023/10/15 12:48:09;;;;;;;3.10;1.10;;;12.40;99.00;;;;;;5015279;28;20202;-56
2023/10/15 12:50:35;;;;;;;4.10;1.00;;;12.30;98.40;;;;;;5065021;23;20233;-56
2023/10/15 12:53:01;;;;;;;1.77;0.73;;;12.10;99.70;;;;;;5046224;28;20877;-56
2023/10/15 12:55:26;;;;;;;1.03;0.60;;;12.00;99.60;;;;;;5021662;28;20680;-57
2023/10/15 12:57:52;;;;;;;2.27;0.63;;;11.90;99.50;;;;;;5069320;23;20243;-58
2023/10/15 13:00:18;;;;;;;0.80;0.67;;;11.70;99.90;;;;;;5030504;28;20742;-58
2023/10/15 13:02:50;;;;;;;1.50;0.97;;;11.40;99.90;;;;;;5029637;28;20767;-56
2023/10/15 13:05:19;;;;;;;3.53;1.33;;;11.30;99.90;;;;;;5030588;28;20285;-56
2023/10/15 13:07:45;;;;;;;4.73;0.90;;;11.90;99.80;;;;;;5037772;28;20202;-58
2023/10/15 13:10:13;;;;;;;1.77;0.80;;;12.30;99.20;;;;;;5043350;28;21123;-57
2023/10/15 13:12:39;;;;;;;4.40;1.20;;;12.60;98.80;;;;;;5042113;28;20206;-56
2023/10/15 13:15:07;;;;;;;3.43;1.20;;;13.20;98.10;;;;;;5044109;28;20209;-57
2023/10/15 13:17:33;;;;;;;1.83;0.60;;;13.50;97.40;;;;;;5043424;28;20643;-57